Terminal Aerodrome Forecast
Issued by NWS

Home | Current Version | Previous Version | Text Only | Print | Product List | Glossary On
Versions: 1 2 3 4 5 6 7 8 9 10 11 12 13 14 15 16 17 18 19 20 21 22 23 24 25 26 27 28 29 30 31 32 33 34 35 36 37 38 39 40 41 42 43 44 45 46 47 48 49 50
000
FTPA31 PHFO 200203 AAA
TAFMDY
TAF AMD
PMDY 200203Z 2002/2024 21015KT P6SM FEW020 SCT030
      TEMPO 2002/2004 FEW015 BKN025
     FM201800 24013G19KT P6SM -SHRA SCT020 BKN030=

USA.gov is the U.S. government's official web portal to all federal, state and local government web resources and services.